createdAt,value
2022-09-09T00:01:41.469Z,14.12
2022-09-09T00:04:22.795Z,14.08
2022-09-09T00:07:11.070Z,14.06
2022-09-09T00:09:50.135Z,14.00
2022-09-09T00:12:25.918Z,13.98
2022-09-09T00:14:57.895Z,14.01
2022-09-09T00:17:37.526Z,13.98
2022-09-09T00:20:25.160Z,13.92
2022-09-09T00:23:20.661Z,13.96
2022-09-09T00:25:52.504Z,13.99
2022-09-09T00:28:20.991Z,13.93
2022-09-09T00:30:50.869Z,13.82
2022-09-09T00:33:23.194Z,13.71
2022-09-09T00:35:57.292Z,13.67
2022-09-09T00:38:36.188Z,13.68
2022-09-09T00:41:11.907Z,13.66
2022-09-09T00:43:41.296Z,13.58
2022-09-09T00:46:41.640Z,13.63
2022-09-09T00:49:28.680Z,13.68
2022-09-09T00:52:19.589Z,13.59
2022-09-09T00:54:52.949Z,13.66
2022-09-09T00:57:30.556Z,13.67
2022-09-09T01:00:19.919Z,13.66
2022-09-09T01:03:25.321Z,13.62
2022-09-09T01:06:06.672Z,13.55
2022-09-09T01:08:55.228Z,13.51
2022-09-09T01:11:27.203Z,13.54
2022-09-09T01:14:02.780Z,13.48
2022-09-09T01:16:31.011Z,13.61
2022-09-09T01:19:00.498Z,13.71
2022-09-09T01:21:51.243Z,13.52
2022-09-09T01:24:43.378Z,13.47
2022-09-09T01:27:11.416Z,13.48
2022-09-09T01:29:38.185Z,13.49
2022-09-09T01:32:39.279Z,13.44
2022-09-09T01:35:12.017Z,13.39
2022-09-09T01:37:38.679Z,13.37
2022-09-09T01:40:06.325Z,13.30
2022-09-09T01:42:32.836Z,13.54
2022-09-09T01:44:59.227Z,13.55
2022-09-09T01:47:26.256Z,13.55
2022-09-09T01:49:52.805Z,13.56
2022-09-09T01:52:19.183Z,13.53
2022-09-09T01:54:45.775Z,13.59
2022-09-09T01:57:19.727Z,13.63
2022-09-09T02:00:12.383Z,13.67
2022-09-09T02:03:01.443Z,13.74
2022-09-09T02:05:42.668Z,13.73
2022-09-09T02:08:13.784Z,13.75
2022-09-09T02:10:43.080Z,13.84
2022-09-09T02:13:16.123Z,13.92
2022-09-09T02:16:04.671Z,13.80
2022-09-09T02:18:41.122Z,13.92
2022-09-09T02:21:08.703Z,13.74
2022-09-09T02:23:36.593Z,14.03
2022-09-09T02:26:05.037Z,14.10
2022-09-09T02:28:34.304Z,14.12
2022-09-09T02:31:02.072Z,14.11
2022-09-09T02:33:35.379Z,14.22
2022-09-09T02:36:04.541Z,14.25
2022-09-09T02:38:36.169Z,14.21
2022-09-09T02:41:03.063Z,14.28
2022-09-09T02:43:34.392Z,14.27
2022-09-09T02:46:31.902Z,14.28
2022-09-09T02:49:12.371Z,14.33
2022-09-09T02:51:50.078Z,14.25
2022-09-09T02:54:31.601Z,14.26
2022-09-09T02:57:02.698Z,14.33
2022-09-09T02:59:31.203Z,14.28
2022-09-09T03:01:57.578Z,14.28
2022-09-09T03:04:25.366Z,14.33
2022-09-09T03:06:52.152Z,14.41
2022-09-09T03:09:18.489Z,14.39
2022-09-09T03:11:45.007Z,14.45
2022-09-09T03:14:12.271Z,14.43
2022-09-09T03:16:38.717Z,14.43
2022-09-09T03:19:05.311Z,14.48
2022-09-09T03:21:31.639Z,14.49
2022-09-09T03:23:58.332Z,14.51
2022-09-09T03:26:25.427Z,14.52
2022-09-09T03:28:52.615Z,14.55
2022-09-09T03:31:20.539Z,14.59
2022-09-09T03:33:47.014Z,14.55
2022-09-09T03:36:13.718Z,14.51
2022-09-09T03:38:40.355Z,14.52
2022-09-09T03:41:06.791Z,14.53
2022-09-09T03:43:33.525Z,14.51
2022-09-09T03:46:00.138Z,14.50
2022-09-09T03:48:29.050Z,14.48
2022-09-09T03:50:58.699Z,14.51
2022-09-09T03:53:25.744Z,14.53
2022-09-09T03:55:57.015Z,14.47
2022-09-09T03:58:25.059Z,14.49
2022-09-09T04:00:56.040Z,14.48
2022-09-09T04:03:27.651Z,14.44
2022-09-09T04:05:56.373Z,14.51
2022-09-09T04:08:24.045Z,14.46
2022-09-09T04:10:50.664Z,14.49
2022-09-09T04:13:19.618Z,14.47
2022-09-09T04:15:52.832Z,14.48
2022-09-09T04:18:20.358Z,14.46
2022-09-09T04:20:48.671Z,14.36
2022-09-09T04:23:15.758Z,14.48
2022-09-09T04:25:47.714Z,14.47
2022-09-09T04:28:15.919Z,14.47
2022-09-09T04:30:43.477Z,14.42
2022-09-09T04:33:10.834Z,14.43
2022-09-09T04:35:38.541Z,14.45
2022-09-09T04:38:06.070Z,14.45
2022-09-09T04:40:32.719Z,14.41
2022-09-09T04:43:00.174Z,14.45
2022-09-09T04:45:27.239Z,14.43
2022-09-09T04:47:54.650Z,14.39
2022-09-09T04:50:21.046Z,14.36
2022-09-09T04:52:47.763Z,14.39
2022-09-09T04:55:14.292Z,14.39
2022-09-09T04:57:41.532Z,14.38
2022-09-09T05:00:08.798Z,14.36
2022-09-09T05:02:39.599Z,14.27
2022-09-09T05:05:07.259Z,14.25
2022-09-09T05:07:33.631Z,14.27
2022-09-09T05:09:59.996Z,14.25
2022-09-09T05:12:26.775Z,14.27
2022-09-09T05:14:53.302Z,14.30
2022-09-09T05:17:19.648Z,14.31
2022-09-09T05:19:46.064Z,14.28
2022-09-09T05:22:12.856Z,14.32
2022-09-09T05:24:39.507Z,14.15
2022-09-09T05:27:07.106Z,14.33
2022-09-09T05:29:36.986Z,14.23
2022-09-09T05:32:04.361Z,14.28
2022-09-09T05:34:30.850Z,14.26
2022-09-09T05:36:57.189Z,14.27
2022-09-09T05:39:23.583Z,14.30
2022-09-09T05:41:49.919Z,14.30
2022-09-09T05:44:16.354Z,14.32
2022-09-09T05:46:42.779Z,14.36
2022-09-09T05:49:09.511Z,14.38
2022-09-09T05:51:36.158Z,14.35
2022-09-09T05:54:02.483Z,14.43
2022-09-09T05:56:30.257Z,14.39
2022-09-09T05:58:57.210Z,14.46
2022-09-09T06:01:29.732Z,14.43
2022-09-09T06:03:56.249Z,14.26
2022-09-09T06:06:26.914Z,14.34
2022-09-09T06:08:55.776Z,14.52
2022-09-09T06:11:24.802Z,14.53
2022-09-09T06:13:54.542Z,14.57
2022-09-09T06:16:26.456Z,14.55
2022-09-09T06:18:55.276Z,14.42
2022-09-09T06:21:24.571Z,14.58
2022-09-09T06:23:52.508Z,14.66
2022-09-09T06:26:19.998Z,14.59
2022-09-09T06:28:48.589Z,14.63
2022-09-09T06:31:28.079Z,14.70
2022-09-09T06:33:56.191Z,14.78
2022-09-09T06:36:28.001Z,14.79
2022-09-09T06:38:54.592Z,14.72
2022-09-09T06:41:23.543Z,14.99
2022-09-09T06:43:50.411Z,14.90
2022-09-09T06:46:19.581Z,15.11
2022-09-09T06:48:47.121Z,15.14
2022-09-09T06:51:19.024Z,15.34
2022-09-09T06:53:47.221Z,15.55
2022-09-09T06:56:17.800Z,15.95
2022-09-09T06:58:47.741Z,16.17
2022-09-09T07:01:22.553Z,16.27
2022-09-09T07:03:51.453Z,16.30
2022-09-09T07:06:21.067Z,16.43
2022-09-09T07:08:56.569Z,16.45
2022-09-09T07:11:26.665Z,16.16
2022-09-09T07:13:53.238Z,16.17
2022-09-09T07:16:21.981Z,16.15
2022-09-09T07:18:48.395Z,16.26
2022-09-09T07:21:15.558Z,16.23
2022-09-09T07:23:42.513Z,16.19
2022-09-09T07:26:16.142Z,16.14
2022-09-09T07:28:43.303Z,16.06
2022-09-09T07:31:17.581Z,16.00
2022-09-09T07:33:45.438Z,15.95
2022-09-09T07:36:32.492Z,15.98
2022-09-09T07:39:03.205Z,16.11
2022-09-09T07:41:35.138Z,16.29
2022-09-09T07:44:05.870Z,16.24
2022-09-09T07:46:32.728Z,16.57
2022-09-09T07:48:59.540Z,16.40
2022-09-09T07:51:32.523Z,16.47
2022-09-09T07:54:04.813Z,16.53
2022-09-09T07:56:33.524Z,16.49
2022-09-09T07:59:00.535Z,16.64
2022-09-09T08:01:38.200Z,17.26
2022-09-09T08:04:10.013Z,18.00
2022-09-09T08:06:42.137Z,17.72
2022-09-09T08:09:10.369Z,18.00
2022-09-09T08:11:39.309Z,18.90
2022-09-09T08:14:08.578Z,19.65
2022-09-09T08:16:38.252Z,20.16
2022-09-09T08:19:05.551Z,20.18
2022-09-09T08:21:34.070Z,20.01
2022-09-09T08:24:02.361Z,20.02
2022-09-09T08:26:31.870Z,19.68
2022-09-09T08:29:00.017Z,19.99
2022-09-09T08:31:31.724Z,19.75
2022-09-09T08:34:04.370Z,19.60
2022-09-09T08:36:37.595Z,19.25
2022-09-09T08:39:05.667Z,19.17
2022-09-09T08:41:46.056Z,18.32
2022-09-09T08:44:34.049Z,18.20
2022-09-09T08:47:18.776Z,18.37
2022-09-09T08:49:54.707Z,18.53
2022-09-09T08:52:26.758Z,18.88
2022-09-09T08:54:55.843Z,19.47
2022-09-09T08:57:28.938Z,20.03
2022-09-09T08:59:57.618Z,20.90
2022-09-09T09:02:54.794Z,20.84
2022-09-09T09:05:50.578Z,20.19
2022-09-09T09:08:54.168Z,20.57
2022-09-09T09:11:20.622Z,20.26
2022-09-09T09:13:55.951Z,19.58
2022-09-09T09:16:39.602Z,19.28
2022-09-09T09:19:14.072Z,19.50
2022-09-09T09:21:55.057Z,19.13
2022-09-09T09:24:33.336Z,18.87
2022-09-09T09:27:08.321Z,18.97
2022-09-09T09:29:50.577Z,19.13
2022-09-09T09:32:23.881Z,19.02
2022-09-09T09:35:02.076Z,19.26
2022-09-09T09:37:36.301Z,20.42
2022-09-09T09:40:17.659Z,21.13
2022-09-09T09:43:00.326Z,20.84
2022-09-09T09:45:55.226Z,20.47
2022-09-09T09:48:28.652Z,19.48
2022-09-09T09:51:03.624Z,19.16
2022-09-09T09:53:35.342Z,18.99
2022-09-09T09:56:07.825Z,19.08
2022-09-09T09:58:51.075Z,19.71
2022-09-09T10:01:28.108Z,19.91
2022-09-09T10:04:14.502Z,20.08
2022-09-09T10:06:41.601Z,20.81
2022-09-09T10:09:27.103Z,20.03
2022-09-09T10:12:16.884Z,20.88
2022-09-09T10:14:49.411Z,21.36
2022-09-09T10:17:38.802Z,21.91
2022-09-09T10:20:11.387Z,22.05
2022-09-09T10:22:44.612Z,21.96
2022-09-09T10:25:24.548Z,20.89
2022-09-09T10:28:14.831Z,21.54
2022-09-09T10:31:00.771Z,21.80
2022-09-09T10:33:39.184Z,20.94
2022-09-09T10:36:21.890Z,20.41
2022-09-09T10:38:58.449Z,20.33
2022-09-09T10:41:39.897Z,20.46
2022-09-09T10:44:41.500Z,20.85
2022-09-09T10:47:54.019Z,20.63
2022-09-09T10:51:04.292Z,20.44
2022-09-09T10:53:34.401Z,20.46
2022-09-09T10:56:09.247Z,20.93
2022-09-09T10:58:59.208Z,20.74
2022-09-09T11:01:31.274Z,20.53
2022-09-09T11:04:06.152Z,21.45
2022-09-09T11:06:40.195Z,21.99
2022-09-09T11:09:07.479Z,22.65
2022-09-09T11:11:43.009Z,22.99
2022-09-09T11:14:17.185Z,23.77
2022-09-09T11:16:54.523Z,23.53
2022-09-09T11:19:44.921Z,24.03
2022-09-09T11:22:32.510Z,23.02
2022-09-09T11:25:27.612Z,22.91
2022-09-09T11:28:16.452Z,22.84
2022-09-09T11:31:04.856Z,21.98
2022-09-09T11:33:59.530Z,21.66
2022-09-09T11:36:36.149Z,22.47
2022-09-09T11:39:18.164Z,22.26
2022-09-09T11:41:45.293Z,23.10
2022-09-09T11:44:14.710Z,23.16
2022-09-09T11:46:42.505Z,22.20
2022-09-09T11:49:42.815Z,22.96
2022-09-09T11:52:33.233Z,23.77
2022-09-09T11:55:13.030Z,24.33
2022-09-09T11:57:40.118Z,24.63
2022-09-09T12:00:07.555Z,25.32
2022-09-09T12:02:34.196Z,23.86
2022-09-09T12:05:13.425Z,23.23
2022-09-09T12:07:43.791Z,22.86
2022-09-09T12:10:28.444Z,22.98
2022-09-09T12:12:54.827Z,22.91
2022-09-09T12:15:30.069Z,24.45
2022-09-09T12:18:03.232Z,22.86
2022-09-09T12:20:40.080Z,22.51
2022-09-09T12:23:20.158Z,22.03
2022-09-09T12:26:06.827Z,21.76
2022-09-09T12:28:42.583Z,21.78
2022-09-09T12:31:32.032Z,21.77
2022-09-09T12:34:11.055Z,22.08
2022-09-09T12:36:38.795Z,22.07
2022-09-09T12:39:38.783Z,22.06
2022-09-09T12:42:05.399Z,22.08
2022-09-09T12:44:33.197Z,21.78
2022-09-09T12:47:03.865Z,21.52
2022-09-09T12:49:39.354Z,21.60
2022-09-09T12:52:17.991Z,22.16
2022-09-09T12:54:47.937Z,23.03
2022-09-09T12:57:15.867Z,24.03
2022-09-09T12:59:46.224Z,23.67
2022-09-09T13:02:21.529Z,23.76
2022-09-09T13:04:48.447Z,23.33
2022-09-09T13:07:16.964Z,22.72
2022-09-09T13:09:45.442Z,22.54
2022-09-09T13:12:20.450Z,23.08
2022-09-09T13:14:54.879Z,22.82
2022-09-09T13:17:26.757Z,22.26
2022-09-09T13:19:54.222Z,22.75
2022-09-09T13:22:31.725Z,23.13
2022-09-09T13:25:10.970Z,22.79
2022-09-09T13:27:40.026Z,22.62
2022-09-09T13:30:23.941Z,22.25
2022-09-09T13:33:12.152Z,22.19
2022-09-09T13:36:01.907Z,21.95
2022-09-09T13:38:31.366Z,21.60
2022-09-09T13:41:08.813Z,20.91
2022-09-09T13:43:48.283Z,20.54
2022-09-09T13:46:46.922Z,20.44
2022-09-09T13:49:13.252Z,20.52
2022-09-09T13:51:47.964Z,20.70
2022-09-09T13:54:16.617Z,20.58
2022-09-09T13:56:44.084Z,20.25
2022-09-09T13:59:14.988Z,20.21
2022-09-09T14:01:42.342Z,19.71
2022-09-09T14:04:09.917Z,19.09
2022-09-09T14:06:40.214Z,18.95
2022-09-09T14:09:16.973Z,18.79
2022-09-09T14:11:44.161Z,18.57
2022-09-09T14:14:10.636Z,18.76
2022-09-09T14:16:37.459Z,18.89
2022-09-09T14:19:04.118Z,18.88
2022-09-09T14:21:30.474Z,19.14
2022-09-09T14:23:58.942Z,19.41
2022-09-09T14:26:25.714Z,19.70
2022-09-09T14:28:56.289Z,19.61
2022-09-09T14:31:24.217Z,19.54
2022-09-09T14:33:51.749Z,19.59
2022-09-09T14:36:18.398Z,19.75
2022-09-09T14:38:44.775Z,19.68
2022-09-09T14:41:20.612Z,19.92
2022-09-09T14:43:47.438Z,20.02
2022-09-09T14:46:16.160Z,20.12
2022-09-09T14:48:42.857Z,20.31
2022-09-09T14:51:17.890Z,20.14
2022-09-09T14:53:45.233Z,19.98
2022-09-09T14:56:17.326Z,19.51
2022-09-09T14:58:44.754Z,19.38
2022-09-09T15:01:14.517Z,18.91
2022-09-09T15:03:42.144Z,18.91
2022-09-09T15:06:13.963Z,18.86
2022-09-09T15:08:43.234Z,18.84
2022-09-09T15:11:11.263Z,18.56
2022-09-09T15:13:39.265Z,18.47
2022-09-09T15:16:07.253Z,18.42
2022-09-09T15:18:34.464Z,18.36
2022-09-09T15:21:02.407Z,18.18
2022-09-09T15:23:28.818Z,18.19
2022-09-09T15:25:57.419Z,18.17
2022-09-09T15:28:24.133Z,18.09
2022-09-09T15:30:55.446Z,18.14
2022-09-09T15:33:23.374Z,18.26
2022-09-09T15:35:50.747Z,18.30
2022-09-09T15:38:18.253Z,18.26
2022-09-09T15:40:47.843Z,18.50
2022-09-09T15:43:14.262Z,18.76
2022-09-09T15:45:40.624Z,19.05
2022-09-09T15:48:06.985Z,19.26
2022-09-09T15:50:33.410Z,19.25
2022-09-09T15:53:00.528Z,19.15
2022-09-09T15:55:27.009Z,19.34
2022-09-09T15:57:53.718Z,19.47
2022-09-09T16:00:21.025Z,19.52
2022-09-09T16:02:50.486Z,19.30
2022-09-09T16:05:17.208Z,19.46
2022-09-09T16:07:44.619Z,19.38
2022-09-09T16:10:11.915Z,19.46
2022-09-09T16:12:39.014Z,19.72
2022-09-09T16:15:05.952Z,19.74
2022-09-09T16:17:38.101Z,19.67
2022-09-09T16:20:07.702Z,19.47
2022-09-09T16:22:34.061Z,19.49
2022-09-09T16:25:00.584Z,19.57
2022-09-09T16:27:27.120Z,19.58
2022-09-09T16:29:54.374Z,19.56
2022-09-09T16:32:21.186Z,19.44
2022-09-09T16:34:47.557Z,19.25
2022-09-09T16:37:13.993Z,19.15
2022-09-09T16:39:40.426Z,18.89
2022-09-09T16:42:06.926Z,18.78
2022-09-09T16:44:33.251Z,18.77
2022-09-09T16:47:01.008Z,18.69
2022-09-09T16:49:29.306Z,18.66
2022-09-09T16:51:58.955Z,18.57
2022-09-09T16:54:27.810Z,18.45
2022-09-09T16:56:54.205Z,18.35
2022-09-09T16:59:22.443Z,18.30
2022-09-09T17:01:51.243Z,18.28
2022-09-09T17:04:24.919Z,18.31
2022-09-09T17:06:53.299Z,18.17
2022-09-09T17:09:21.520Z,18.26
2022-09-09T17:11:48.876Z,18.12
2022-09-09T17:14:18.193Z,18.04
2022-09-09T17:16:45.141Z,18.08
2022-09-09T17:19:12.718Z,18.04
2022-09-09T17:21:49.891Z,17.90
2022-09-09T17:24:27.760Z,17.94
2022-09-09T17:26:55.245Z,17.98
2022-09-09T17:29:22.392Z,17.91
2022-09-09T17:31:48.757Z,17.87
2022-09-09T17:34:15.228Z,17.89
2022-09-09T17:36:41.877Z,17.90
2022-09-09T17:39:09.110Z,17.83
2022-09-09T17:41:38.307Z,17.81
2022-09-09T17:44:06.052Z,17.84
2022-09-09T17:46:35.882Z,17.73
2022-09-09T17:49:05.523Z,17.78
2022-09-09T17:51:33.648Z,17.74
2022-09-09T17:54:03.374Z,17.72
2022-09-09T17:56:32.548Z,17.64
2022-09-09T17:59:00.233Z,17.69
2022-09-09T18:01:32.401Z,17.72
2022-09-09T18:04:04.394Z,17.65
2022-09-09T18:06:40.784Z,17.70
2022-09-09T18:09:19.373Z,17.64
2022-09-09T18:11:49.233Z,17.58
2022-09-09T18:14:18.515Z,17.56
2022-09-09T18:16:47.038Z,17.56
2022-09-09T18:19:16.641Z,17.54
2022-09-09T18:21:44.520Z,17.57
2022-09-09T18:24:12.303Z,17.46
2022-09-09T18:26:39.989Z,17.41
2022-09-09T18:29:12.787Z,17.40
2022-09-09T18:31:40.250Z,17.31
2022-09-09T18:34:09.899Z,17.38
2022-09-09T18:36:40.440Z,17.35
2022-09-09T18:39:08.730Z,17.33
2022-09-09T18:41:38.320Z,17.42
2022-09-09T18:44:14.508Z,17.43
2022-09-09T18:46:41.126Z,17.26
2022-09-09T18:49:08.421Z,17.32
2022-09-09T18:51:36.955Z,17.32
2022-09-09T18:54:07.865Z,17.22
2022-09-09T18:56:35.188Z,17.14
2022-09-09T18:59:04.619Z,17.06
2022-09-09T19:01:31.136Z,16.97
2022-09-09T19:03:57.887Z,16.94
2022-09-09T19:06:28.100Z,16.83
2022-09-09T19:09:02.909Z,16.79
2022-09-09T19:11:30.458Z,16.80
2022-09-09T19:14:01.856Z,16.82
2022-09-09T19:16:30.906Z,16.84
2022-09-09T19:19:02.297Z,16.75
2022-09-09T19:21:31.843Z,16.78
2022-09-09T19:24:01.428Z,16.47
2022-09-09T19:26:33.206Z,16.75
2022-09-09T19:29:00.117Z,16.59
2022-09-09T19:31:30.961Z,16.63
2022-09-09T19:33:57.734Z,16.64
2022-09-09T19:36:25.538Z,16.51
2022-09-09T19:38:54.272Z,16.58
2022-09-09T19:41:24.539Z,16.64
2022-09-09T19:44:01.943Z,16.65
2022-09-09T19:46:30.413Z,16.65
2022-09-09T19:48:58.504Z,16.63
2022-09-09T19:51:26.552Z,16.37
2022-09-09T19:53:58.511Z,16.55
2022-09-09T19:56:29.209Z,16.60
2022-09-09T19:58:56.338Z,16.63
2022-09-09T20:01:28.772Z,16.54
2022-09-09T20:03:57.358Z,16.52
2022-09-09T20:06:26.551Z,16.46
2022-09-09T20:08:54.699Z,16.31
2022-09-09T20:11:21.696Z,16.46
2022-09-09T20:13:49.430Z,16.17
2022-09-09T20:16:19.525Z,16.38
2022-09-09T20:18:50.842Z,16.12
2022-09-09T20:21:20.774Z,16.39
2022-09-09T20:23:48.873Z,16.39
2022-09-09T20:26:17.776Z,16.21
2022-09-09T20:28:45.090Z,16.34
2022-09-09T20:31:14.866Z,16.32
2022-09-09T20:33:42.897Z,16.39
2022-09-09T20:36:14.557Z,16.26
2022-09-09T20:38:42.376Z,16.28
2022-09-09T20:41:10.552Z,16.28
2022-09-09T20:43:37.035Z,16.22
2022-09-09T20:46:04.392Z,16.29
2022-09-09T20:48:34.435Z,16.21
2022-09-09T20:51:05.300Z,16.13
2022-09-09T20:53:32.887Z,16.16
2022-09-09T20:56:01.323Z,16.10
2022-09-09T20:58:32.861Z,16.05
2022-09-09T21:01:00.614Z,16.03
2022-09-09T21:03:29.797Z,15.89
2022-09-09T21:05:58.095Z,15.95
2022-09-09T21:08:28.401Z,15.89
2022-09-09T21:10:55.525Z,15.86
2022-09-09T21:13:22.543Z,15.79
2022-09-09T21:15:50.837Z,15.79
2022-09-09T21:18:18.530Z,15.74
2022-09-09T21:20:46.204Z,15.70
2022-09-09T21:23:14.694Z,15.62
2022-09-09T21:25:41.672Z,15.59
2022-09-09T21:28:09.070Z,15.58
2022-09-09T21:30:41.867Z,15.53
2022-09-09T21:33:11.124Z,15.54
2022-09-09T21:35:39.448Z,15.47
2022-09-09T21:38:17.853Z,15.49
2022-09-09T21:40:45.144Z,15.42
2022-09-09T21:43:13.715Z,15.46
2022-09-09T21:45:41.735Z,15.32
2022-09-09T21:48:10.510Z,15.34
2022-09-09T21:50:38.276Z,15.33
2022-09-09T21:53:04.663Z,15.29
2022-09-09T21:55:36.833Z,15.33
2022-09-09T21:58:07.616Z,15.27
2022-09-09T22:00:33.967Z,15.25
2022-09-09T22:03:02.651Z,15.22
2022-09-09T22:05:30.864Z,15.22
2022-09-09T22:07:57.939Z,15.20
2022-09-09T22:10:27.030Z,15.14
2022-09-09T22:12:54.100Z,15.05
2022-09-09T22:15:20.962Z,15.04
2022-09-09T22:17:48.996Z,15.00
2022-09-09T22:20:15.989Z,15.02
2022-09-09T22:22:42.470Z,15.01
2022-09-09T22:25:09.222Z,14.99
2022-09-09T22:27:35.642Z,14.82
2022-09-09T22:30:02.094Z,14.94
2022-09-09T22:32:28.454Z,14.89
2022-09-09T22:34:54.830Z,14.80
2022-09-09T22:37:22.540Z,14.77
2022-09-09T22:39:49.479Z,14.83
2022-09-09T22:42:15.964Z,14.81
2022-09-09T22:44:42.603Z,14.83
2022-09-09T22:47:08.954Z,14.77
2022-09-09T22:49:37.082Z,14.88
2022-09-09T22:52:04.082Z,14.94
2022-09-09T22:54:30.432Z,14.98
2022-09-09T22:56:56.791Z,15.00
2022-09-09T22:59:23.487Z,14.95
2022-09-09T23:01:51.310Z,14.92
2022-09-09T23:04:22.177Z,14.89
2022-09-09T23:06:48.575Z,14.89
2022-09-09T23:09:14.937Z,14.84
2022-09-09T23:11:42.053Z,14.64
2022-09-09T23:14:11.330Z,14.81
2022-09-09T23:16:40.717Z,14.82
2022-09-09T23:19:15.790Z,14.76
2022-09-09T23:21:44.968Z,14.73
2022-09-09T23:24:14.470Z,14.70
2022-09-09T23:26:44.728Z,14.72
2022-09-09T23:29:14.217Z,14.67
2022-09-09T23:31:43.308Z,14.67
2022-09-09T23:34:10.089Z,14.61
2022-09-09T23:36:37.642Z,14.58
2022-09-09T23:39:06.252Z,14.60
2022-09-09T23:41:35.236Z,14.54
2022-09-09T23:44:02.422Z,14.43
2022-09-09T23:46:30.502Z,14.41
2022-09-09T23:48:58.499Z,14.42
2022-09-09T23:51:28.067Z,14.28
2022-09-09T23:53:56.770Z,14.33
2022-09-09T23:56:26.634Z,14.33
2022-09-09T23:58:53.246Z,14.24
